메인 페이지
METAR-TAF:

METAR-TAF

공항 :

빈, 오스트리아

빈 국제공항

위도: 48-07N, 경도: 016-34E, 고도: 183m

현재 날씨관측

예보는 37분 전, 05:20시(UTC)에 발표되었습니다.
5kt
온도 -2°C
습도 93%
기압 1016 hPa
시정: 3200m
고도 200ft 상공 구름 조금
고도 400ft 상공 구름 보통
고도 600ft 상공 구름 많음
약한눈, 박무

METAR: LOWW 200520Z 01005KT 3200 -SN BR FEW002 SCT004 BKN006 M02/M03 Q1016 R11/99 R16/590493 TEMPO 2000 SN BKN003 OVC012

시각: 06:57 (05:57 UTC)

예보

예보는 42분 전, 05:15시(UTC)에 발표되었습니다.
예보 대상 시간: 20일 06시부터 21일 12시까지 (UTC)
북동6kt
시정: 2000m
고도 400ft 상공 구름 많음
고도 1200ft 상공 구름 많음
약한눈
일시적
20일 06시부터 21일 06시까지 (UTC)
시정: 6000m
고도 2000ft 상공 구름 많음
약한눈
확률 30% :
일시적
20일 06시부터 20일 22시까지 (UTC)
시정: 0900m
고도 200ft 상공
전환 중
20일 22시부터 20일 24시까지 (UTC)
북북서8kt
고도 3000ft 상공 구름 많음

TAF: LOWW 200515Z 2006/2112 04006KT 2000 -SN BKN004 BKN012 TX00/2112Z TNM02/2006Z TEMPO 2006/2106 6000 -SN BKN020 PROB30 TEMPO 2006/2022 0900 SN VV002 BECMG 2022/2024 34008KT BKN030

4,000개 이상의 공항 관측 자료 및 예보 (METAR 및 TAF 보고).

지도상에서 검색 가능한 기상관측소가 노란 점과 빨간 점으로 표시되어 있습니다.

기상관측소 명을 보려면 표시 위로 마우스를 이동하세요.

날씨 관측과 예보를 보려면 클릭하세요.

지도 변경 : 확대하려면 엑스 표시가 있는 녹색 버튼, 축소하려면 빼기 표시가 있는 녹색 버튼, 다음 페이지의 지도를 보려면 녹색 화살표를 클릭하세요.


METAR-TAF: